Time;durP1;ratioP1;P1;durP2;ratioP2;P2;SDS_P1;SDS_P2;PMS_P1;PMS_P2;Temp;Humidity;BMP_temperature;BMP_pressure;BME280_temperature;BME280_humidity;BME280_pressure;Samples;Min_cycle;Max_cycle;Signal;HPM_P1;HPM_P2
2022/07/26 00:02:59;;;;;;;1999.90;999.90;;;;;;;20.16;68.39;99176.03;8169644;28;20102;-78
2022/07/26 00:07:02;;;;;;;1999.90;999.90;;;;;;;20.05;68.11;99181.78;8195116;28;20051;-78
2022/07/26 00:11:06;;;;;;;1999.90;999.90;;;;;;;19.95;68.35;99177.03;8196447;28;20123;-79
2022/07/26 00:15:10;;;;;;;1999.90;999.90;;;;;;;19.87;68.00;99182.63;8180433;28;20118;-78
2022/07/26 00:19:13;;;;;;;1999.90;999.90;;;;;;;19.71;68.66;99190.38;8177553;28;20051;-78
2022/07/26 00:23:15;;;;;;;1999.90;999.90;;;;;;;19.57;68.65;99193.66;8179300;28;20461;-78
2022/07/26 00:27:17;;;;;;;1999.90;999.90;;;;;;;19.43;69.19;99197.78;8199247;28;20043;-78
2022/07/26 00:31:20;;;;;;;1999.90;999.90;;;;;;;19.29;69.14;99186.06;8150920;28;20048;-78
2022/07/26 00:35:24;;;;;;;1999.90;999.90;;;;;;;19.20;68.97;99196.97;8187174;29;20069;-79
2022/07/26 00:39:27;;;;;;;1999.90;999.90;;;;;;;19.07;69.10;99208.09;8183381;28;20050;-78
2022/07/26 00:43:30;;;;;;;1999.90;999.90;;;;;;;18.98;68.42;99207.53;8203773;28;20035;-79
2022/07/26 00:47:34;;;;;;;1999.90;999.90;;;;;;;18.85;68.44;99209.00;8161287;29;20484;-80
2022/07/26 00:51:36;;;;;;;1999.90;999.90;;;;;;;18.69;68.62;99219.28;8164918;29;20047;-79
2022/07/26 00:55:39;;;;;;;1999.90;999.90;;;;;;;18.47;68.81;99212.25;8143863;29;20115;-79
2022/07/26 00:59:42;;;;;;;1999.90;999.90;;;;;;;18.36;69.27;99213.53;8146988;29;20039;-80
2022/07/26 01:03:51;;;;;;;1999.90;999.90;;;;;;;18.24;69.55;99226.28;8183997;28;20141;-80
2022/07/26 01:07:54;;;;;;;1999.90;999.90;;;;;;;18.07;69.84;99219.91;8177540;28;20043;-80
2022/07/26 01:11:56;;;;;;;1999.90;999.90;;;;;;;18.01;69.46;99232.41;8188539;28;20051;-79
2022/07/26 01:15:59;;;;;;;1999.90;999.90;;;;;;;17.86;69.24;99233.84;8195217;28;20083;-79
2022/07/26 01:20:01;;;;;;;1999.90;999.90;;;;;;;17.76;69.83;99235.91;8207000;28;20540;-79
2022/07/26 01:24:03;;;;;;;1999.90;999.90;;;;;;;17.68;70.08;99243.22;8193308;28;20048;-79
2022/07/26 01:28:05;;;;;;;1999.90;999.90;;;;;;;17.58;70.13;99243.56;8166186;28;20078;-80
2022/07/26 01:32:09;;;;;;;1999.90;999.90;;;;;;;17.49;69.92;99235.13;8140218;29;20107;-80
2022/07/26 01:36:11;;;;;;;1999.90;999.90;;;;;;;17.44;69.79;99241.44;8155358;29;20066;-79
2022/07/26 01:40:13;;;;;;;1999.90;999.90;;;;;;;17.39;69.96;99248.59;8135835;29;20086;-79
2022/07/26 01:44:14;;;;;;;1999.90;999.90;;;;;;;17.29;70.20;99250.69;8123818;29;20060;-79
2022/07/26 01:48:17;;;;;;;1999.90;999.90;;;;;;;17.15;70.23;99248.53;8155020;29;20059;-79
2022/07/26 01:52:38;;;;;;;1999.90;999.90;;;;;;;17.01;70.40;99260.38;8131829;29;20393;-79
2022/07/26 01:56:47;;;;;;;1999.90;999.90;;;;;;;16.97;70.95;99267.50;8143413;29;20043;-79
2022/07/26 02:00:48;;;;;;;1999.90;999.90;;;;;;;16.92;70.99;99279.91;8145462;28;20059;-79
2022/07/26 02:04:57;;;;;;;1999.90;999.90;;;;;;;16.89;71.24;99278.25;8206900;28;20050;-79
2022/07/26 02:08:59;;;;;;;1999.90;999.90;;;;;;;16.83;71.22;99273.19;8188688;28;20611;-79
2022/07/26 02:13:02;;;;;;;1999.90;999.90;;;;;;;16.79;71.70;99282.06;8197676;28;20043;-79
2022/07/26 02:17:08;;;;;;;1999.90;999.90;;;;;;;16.75;71.67;99279.59;8181823;28;20070;-79
2022/07/26 02:21:11;;;;;;;1999.90;999.90;;;;;;;16.73;71.58;99290.13;8140209;29;20078;-79
2022/07/26 02:25:13;;;;;;;1999.90;999.90;;;;;;;16.70;71.69;99290.22;8152194;29;20043;-79
2022/07/26 02:29:17;;;;;;;1999.90;999.90;;;;;;;16.75;71.55;99288.31;8166055;29;20055;-79
2022/07/26 02:33:19;;;;;;;1999.90;999.90;;;;;;;16.80;71.26;99283.78;8178887;28;20052;-79
2022/07/26 02:37:22;;;;;;;1999.90;999.90;;;;;;;16.80;71.50;99286.38;8176325;28;20051;-79
2022/07/26 02:41:24;;;;;;;1999.90;999.90;;;;;;;16.84;72.00;99289.78;8165631;29;20044;-79
2022/07/26 02:45:27;;;;;;;1999.90;999.90;;;;;;;16.88;71.14;99297.50;8197841;28;20110;-79
2022/07/26 02:49:29;;;;;;;1999.90;999.90;;;;;;;16.97;70.74;99295.50;8196417;28;20045;-81
2022/07/26 02:53:31;;;;;;;1999.90;999.90;;;;;;;17.04;70.51;99294.38;8192135;28;20050;-79
2022/07/26 02:57:33;;;;;;;1999.90;999.90;;;;;;;17.04;70.34;99303.09;8185611;28;20054;-79
2022/07/26 03:01:47;;;;;;;1999.90;999.90;;;;;;;17.05;70.07;99298.72;8191844;28;20138;-80
2022/07/26 03:05:49;;;;;;;1999.90;999.90;;;;;;;17.04;69.26;99302.25;8181555;28;20062;-79
2022/07/26 03:09:50;;;;;;;1999.90;999.90;;;;;;;17.02;68.95;99311.94;8183304;28;20083;-79
2022/07/26 03:13:52;;;;;;;1999.90;999.90;;;;;;;17.01;69.07;99305.84;8176247;28;20031;-79
2022/07/26 03:17:55;;;;;;;;;;;;;;;16.98;69.26;99310.31;8191250;28;20089;-79
2022/07/26 03:21:58;;;;;;;1999.90;999.90;;;;;;;16.95;69.00;99305.19;8173879;28;19922;-79
2022/07/26 03:26:01;;;;;;;1999.90;999.90;;;;;;;16.96;68.71;99304.28;8193928;28;20067;-79
2022/07/26 03:30:04;;;;;;;1999.90;999.90;;;;;;;16.83;69.29;99303.78;8172337;28;20051;-79
2022/07/26 03:34:06;;;;;;;1999.90;999.90;;;;;;;16.70;69.33;99300.72;8185681;28;20138;-79
2022/07/26 03:38:08;;;;;;;1999.90;999.90;;;;;;;16.66;69.90;99293.78;8195517;28;20051;-79
2022/07/26 03:42:10;;;;;;;1999.90;999.90;;;;;;;16.54;70.60;99309.91;8181708;28;20051;-79
2022/07/26 03:46:11;;;;;;;1999.90;999.90;;;;;;;16.44;70.90;99314.56;8196060;28;20166;-79
2022/07/26 03:50:13;;;;;;;1999.90;999.90;;;;;;;16.35;71.66;99316.59;8197022;28;20315;-79
2022/07/26 03:54:16;;;;;;;1999.90;999.90;;;;;;;16.20;71.54;99313.50;8183462;28;20134;-79
2022/07/26 03:58:18;;;;;;;1999.90;999.90;;;;;;;16.11;72.37;99321.63;8179260;28;20495;-81
2022/07/26 04:02:19;;;;;;;1999.90;999.90;;;;;;;16.03;72.45;99328.84;8183621;28;20077;-80
2022/07/26 04:06:21;;;;;;;1999.90;999.90;;;;;;;15.98;72.51;99325.50;8204076;28;20039;-81
2022/07/26 04:10:23;;;;;;;1999.90;999.90;;;;;;;15.91;72.92;99323.91;8201222;28;20305;-81
2022/07/26 04:14:25;;;;;;;1999.90;999.90;;;;;;;15.83;73.36;99324.16;8205217;28;20074;-80
2022/07/26 04:18:27;;;;;;;1999.90;999.90;;;;;;;15.79;73.30;99324.25;8174525;29;20126;-81
2022/07/26 04:22:28;;;;;;;1999.90;999.90;;;;;;;15.79;73.30;99327.72;8163904;28;20170;-81
2022/07/26 04:26:30;;;;;;;1999.90;999.90;;;;;;;15.84;73.70;99327.63;8183902;28;20113;-80
2022/07/26 04:30:31;;;;;;;1999.90;999.90;;;;;;;15.91;73.70;99334.41;8169889;28;20075;-80
2022/07/26 04:34:33;;;;;;;1999.90;999.90;;;;;;;15.97;73.58;99337.69;8195628;28;20504;-81
2022/07/26 04:38:34;;;;;;;1999.90;999.90;;;;;;;16.03;73.29;99336.69;8168169;29;20074;-81
2022/07/26 04:42:36;;;;;;;1999.90;999.90;;;;;;;16.12;72.90;99341.66;8183663;28;20077;-81
2022/07/26 04:46:38;;;;;;;1999.90;999.90;;;;;;;16.23;73.10;99341.38;8185114;28;20054;-81
2022/07/26 04:50:45;;;;;;;1999.90;999.90;;;;;;;16.28;72.71;99352.56;8188190;28;20051;-81
2022/07/26 04:54:46;;;;;;;1999.90;999.90;;;;;;;16.42;72.44;99357.44;8185363;28;20050;-80
2022/07/26 04:58:48;;;;;;;1999.90;999.90;;;;;;;16.55;72.20;99348.31;8192156;28;20351;-81
2022/07/26 05:02:52;;;;;;;1999.90;999.90;;;;;;;16.70;71.46;99353.16;8194165;28;20084;-81
2022/07/26 05:07:01;;;;;;;1999.90;999.90;;;;;;;16.85;71.35;99357.06;8174077;28;20047;-81
2022/07/26 05:11:03;;;;;;;1999.90;999.90;;;;;;;16.98;70.57;99366.25;8195864;28;20051;-81
2022/07/26 05:15:05;;;;;;;1999.90;999.90;;;;;;;17.11;70.26;99358.88;8182111;29;20043;-81
2022/07/26 05:19:14;;;;;;;1999.90;999.90;;;;;;;17.29;69.38;99358.31;8188649;28;20058;-81
2022/07/26 05:23:16;;;;;;;1999.90;999.90;;;;;;;17.37;68.69;99360.66;8198002;28;20570;-81
2022/07/26 05:27:19;;;;;;;1999.90;999.90;;;;;;;17.43;68.54;99350.84;8178130;28;20043;-81
2022/07/26 05:31:33;;;;;;;1999.90;999.90;;;;;;;17.42;68.53;99350.91;8170965;28;20646;-80
2022/07/26 05:35:44;;;;;;;1999.90;999.90;;;;;;;17.52;68.78;99350.53;8180908;28;20054;-79
2022/07/26 05:39:47;;;;;;;1999.90;999.90;;;;;;;17.72;68.08;99352.50;8182005;28;20036;-80
2022/07/26 05:43:48;;;;;;;1999.90;999.90;;;;;;;17.94;67.48;99354.38;8179222;28;20086;-80
2022/07/26 05:47:52;;;;;;;1999.90;999.90;;;;;;;18.23;66.72;99353.38;8162056;28;20097;-79
2022/07/26 05:52:01;;;;;;;1999.90;999.90;;;;;;;18.56;65.62;99349.50;8187326;28;20083;-79
2022/07/26 05:56:03;;;;;;;1999.90;999.90;;;;;;;18.93;64.43;99356.00;8188129;28;20118;-80
2022/07/26 06:00:07;;;;;;;1999.90;999.90;;;;;;;19.42;63.14;99354.06;8176274;28;20050;-80
2022/07/26 06:04:09;;;;;;;1999.90;999.90;;;;;;;19.81;60.84;99355.06;8178777;28;20055;-80
2022/07/26 06:08:11;;;;;;;1999.90;999.90;;;;;;;20.36;59.90;99344.72;8187882;29;20052;-80
2022/07/26 06:12:14;;;;;;;1999.90;999.90;;;;;;;20.99;57.72;99360.31;8189137;28;20047;-80
2022/07/26 06:16:16;;;;;;;1999.90;999.90;;;;;;;21.49;56.46;99357.03;8193584;28;20058;-81
2022/07/26 06:20:23;;;;;;;1999.90;999.90;;;;;;;21.88;54.63;99356.81;8168930;29;20054;-79
2022/07/26 06:24:32;;;;;;;1999.90;999.90;;;;;;;22.33;53.13;99366.00;8189986;29;20039;-80
2022/07/26 06:28:37;;;;;;;1999.90;999.90;;;;;;;22.77;51.58;99361.78;8190947;28;20047;-79
2022/07/26 06:32:43;;;;;;;1999.90;999.90;;;;;;;23.04;50.65;99366.56;8153823;29;20043;-80
2022/07/26 06:36:45;;;;;;;1999.90;999.90;;;;;;;23.49;49.74;99358.63;8141065;29;20059;-80
2022/07/26 06:40:48;;;;;;;1999.90;999.90;;;;;;;23.69;48.45;99360.16;8142039;29;20055;-80
2022/07/26 06:44:50;;;;;;;1999.90;999.90;;;;;;;23.40;48.61;99375.06;8140520;29;20036;-79
2022/07/26 06:48:52;;;;;;;1999.90;999.90;;;;;;;23.44;49.29;99368.66;8137365;29;20097;-79
2022/07/26 06:52:59;;;;;;;1999.90;999.90;;;;;;;23.85;48.41;99364.56;8160973;29;20071;-80
2022/07/26 06:57:04;;;;;;;1999.90;999.90;;;;;;;24.10;47.83;99370.13;8130854;29;20039;-79
2022/07/26 07:01:07;;;;;;;1999.90;999.90;;;;;;;24.32;47.46;99369.69;8148253;29;20063;-79
2022/07/26 07:05:12;;;;;;;1999.90;999.90;;;;;;;24.16;48.10;99368.88;8184446;28;20051;-79
2022/07/26 07:09:15;;;;;;;1999.90;999.90;;;;;;;24.16;47.05;99366.22;8157753;28;20055;-79
2022/07/26 07:13:16;;;;;;;;;;;;;;;24.39;47.52;99371.88;8180464;28;20430;-79
2022/07/26 07:17:19;;;;;;;1999.90;999.90;;;;;;;24.08;47.44;99364.91;8169930;29;20285;-79
2022/07/26 07:21:20;;;;;;;1999.90;999.90;;;;;;;24.16;47.43;99366.22;8168928;28;20871;-78
2022/07/26 07:25:23;;;;;;;1999.90;999.90;;;;;;;23.97;48.93;99377.94;8189500;28;20054;-78
2022/07/26 07:29:31;;;;;;;1999.90;999.90;;;;;;;23.28;49.45;99378.41;8189794;28;20516;-79
2022/07/26 07:33:32;;;;;;;1999.90;999.90;;;;;;;23.28;49.93;99378.41;8177612;29;20118;-78
2022/07/26 07:37:54;;;;;;;1999.90;999.90;;;;;;;23.75;49.38;99370.41;8166559;29;20066;-78
2022/07/26 07:41:55;;;;;;;;;;;;;;;24.08;48.75;99377.31;8171090;29;20086;-78
2022/07/26 07:45:57;;;;;;;1999.90;999.90;;;;;;;24.26;48.17;99373.56;8158573;28;19927;-78
2022/07/26 07:49:59;;;;;;;1999.90;999.90;;;;;;;24.32;47.44;99370.53;8141428;29;20059;-78
2022/07/26 07:54:01;;;;;;;1999.90;999.90;;;;;;;24.49;47.08;99369.50;8141712;29;20055;-78
2022/07/26 07:58:06;;;;;;;1999.90;999.90;;;;;;;24.81;46.23;99367.50;8156906;29;20063;-77
2022/07/26 08:02:08;;;;;;;1999.90;999.90;;;;;;;25.23;45.65;99361.25;8135405;29;20143;-77
2022/07/26 08:06:09;;;;;;;;;;;;;;;25.19;45.45;99358.91;8154211;29;20056;-78
2022/07/26 08:10:11;;;;;;;1999.90;999.90;;;;;;;24.85;45.49;99370.81;8139923;29;19965;-78
2022/07/26 08:14:13;;;;;;;1999.90;999.90;;;;;;;24.92;46.00;99369.47;8150779;29;20650;-77
2022/07/26 08:18:19;;;;;;;1999.90;999.90;;;;;;;25.07;45.80;99371.19;8153368;29;20135;-77
2022/07/26 08:22:24;;;;;;;1999.90;999.90;;;;;;;24.89;46.18;99377.63;8134100;29;20078;-77
2022/07/26 08:26:25;;;;;;;1999.90;999.90;;;;;;;24.17;46.59;99375.91;8138226;29;20059;-77
2022/07/26 08:30:28;;;;;;;1999.90;999.90;;;;;;;24.23;46.58;99380.81;8147605;28;20062;-77
2022/07/26 08:34:33;;;;;;;1999.90;999.90;;;;;;;24.75;45.91;99385.63;8132636;29;20158;-77
2022/07/26 08:38:34;;;;;;;1999.90;999.90;;;;;;;25.36;44.99;99377.28;8156717;29;20051;-76
2022/07/26 08:42:36;;;;;;;1999.90;999.90;;;;;;;25.57;44.00;99389.16;8132123;29;20102;-77
2022/07/26 08:46:38;;;;;;;;;;;;;;;25.04;43.14;99389.97;8144927;29;20054;-78
2022/07/26 08:50:40;;;;;;;1999.90;999.90;;;;;;;25.01;44.01;99387.53;8184797;28;20248;-77
2022/07/26 08:54:51;;;;;;;1999.90;999.90;;;;;;;25.23;43.98;99382.53;8167125;29;20049;-76
2022/07/26 08:58:52;;;;;;;1999.90;999.90;;;;;;;25.33;43.80;99393.44;8185296;28;20047;-77
2022/07/26 09:02:55;;;;;;;1999.90;999.90;;;;;;;25.60;43.64;99385.44;8166742;28;20090;-77
2022/07/26 09:07:01;;;;;;;1999.90;999.90;;;;;;;26.05;42.88;99381.53;8168598;28;20690;-77
2022/07/26 09:11:22;;;;;;;1999.90;999.90;;;;;;;26.02;41.79;99389.72;8186571;28;20408;-77
2022/07/26 09:15:26;;;;;;;1999.90;999.90;;;;;;;26.15;41.57;99381.75;8181092;28;20051;-77
2022/07/26 09:19:27;;;;;;;1999.90;999.90;;;;;;;26.27;40.77;99390.72;8183323;28;20118;-77
2022/07/26 09:23:40;;;;;;;1999.90;999.90;;;;;;;26.41;40.17;99393.31;8168362;28;20589;-77
2022/07/26 09:27:41;;;;;;;1999.90;999.90;;;;;;;26.43;40.61;99394.06;8166153;29;20655;-76
2022/07/26 09:31:43;;;;;;;;;;;;;;;26.60;40.61;99390.22;8168378;28;20059;-77
2022/07/26 09:36:03;;;;;;;1999.90;999.90;;;;;;;25.99;41.75;99395.25;8158702;29;20019;-78
2022/07/26 09:40:11;;;;;;;1999.90;999.90;;;;;;;25.34;42.03;99395.13;8138351;29;20083;-77
2022/07/26 09:44:24;;;;;;;1999.90;999.90;;;;;;;25.11;43.94;99395.75;8152982;29;20044;-77
2022/07/26 09:48:28;;;;;;;1999.90;999.90;;;;;;;25.56;43.05;99397.25;8132406;29;20861;-78
2022/07/26 09:53:10;;;;;;;1999.90;999.90;;;;;;;26.14;41.34;99388.03;8151458;29;20151;-77
2022/07/26 09:57:15;;;;;;;1999.90;999.90;;;;;;;26.28;38.57;99400.41;8131405;29;20050;-79
2022/07/26 10:01:16;;;;;;;1999.90;999.90;;;;;;;26.35;40.20;99394.56;8142586;29;20945;-78
2022/07/26 10:05:20;;;;;;;1999.90;999.90;;;;;;;26.67;39.34;99400.31;8159825;29;20050;-78
2022/07/26 10:09:22;;;;;;;1999.90;999.90;;;;;;;26.67;38.76;99399.47;8156107;29;20143;-78
2022/07/26 10:13:26;;;;;;;1999.90;999.90;;;;;;;26.94;39.90;99396.66;8147406;29;20106;-78
2022/07/26 10:17:27;;;;;;;1999.90;999.90;;;;;;;27.14;38.76;99393.44;8149981;28;20142;-78
2022/07/26 10:21:34;;;;;;;1999.90;999.90;;;;;;;27.14;38.80;99396.09;8164240;29;20072;-78
2022/07/26 10:25:38;;;;;;;1999.90;999.90;;;;;;;27.00;38.73;99396.25;8163285;28;20050;-78
2022/07/26 10:29:40;;;;;;;1999.90;999.90;;;;;;;27.22;38.24;99398.19;8167577;28;20518;-78
2022/07/26 10:33:45;;;;;;;;;;;;;;;27.03;38.14;99399.53;8153664;28;20055;-78
2022/07/26 10:37:58;;;;;;;1999.90;999.90;;;;;;;26.86;38.40;99391.88;8178319;28;20303;-79
2022/07/26 10:42:03;;;;;;;1999.90;999.90;;;;;;;26.66;39.63;99392.44;8169904;28;20130;-77
2022/07/26 10:46:17;;;;;;;1999.90;999.90;;;;;;;26.23;39.30;99398.06;8184226;28;20058;-78
2022/07/26 10:50:31;;;;;;;1999.90;999.90;;;;;;;25.96;40.03;99397.25;8186987;28;20043;-78
2022/07/26 10:54:55;;;;;;;1999.90;999.90;;;;;;;25.78;41.00;99392.22;8164697;29;20050;-78
2022/07/26 10:58:57;;;;;;;1999.90;999.90;;;;;;;25.60;41.60;99391.59;8186902;28;20061;-78
2022/07/26 11:03:03;;;;;;;1999.90;999.90;;;;;;;25.31;41.11;99390.00;8187725;28;20047;-80
2022/07/26 11:07:08;;;;;;;1999.90;999.90;;;;;;;25.27;41.57;99386.69;8178958;29;20043;-80
2022/07/26 11:11:10;;;;;;;1999.90;999.90;;;;;;;25.05;42.24;99382.88;8192097;28;20074;-80
2022/07/26 11:15:22;;;;;;;1999.90;999.90;;;;;;;24.97;42.03;99373.56;8183822;28;20070;-79
2022/07/26 11:19:24;;;;;;;;;;;;;;;24.86;41.92;99377.84;8134659;29;20462;-79
2022/07/26 11:23:36;;;;;;;1999.90;999.90;;;;;;;24.88;42.37;99373.28;8158637;29;20529;-79
2022/07/26 11:27:57;;;;;;;1999.90;999.90;;;;;;;25.20;43.03;99376.56;8158908;29;20044;-79
2022/07/26 11:32:00;;;;;;;1999.90;999.90;;;;;;;25.34;41.22;99370.38;8165157;29;20047;-79
2022/07/26 11:36:30;;;;;;;1999.90;999.90;;;;;;;25.30;41.60;99367.88;8189835;28;20838;-79
2022/07/26 11:40:46;;;;;;;1999.90;999.90;;;;;;;25.28;42.09;99361.81;8186989;28;20375;-78
2022/07/26 11:44:48;;;;;;;1999.90;999.90;;;;;;;25.45;42.01;99367.84;8180803;28;20043;-78
2022/07/26 11:48:52;;;;;;;1999.90;999.90;;;;;;;25.30;40.04;99365.22;8131874;29;20454;-78
2022/07/26 11:52:53;;;;;;;1999.90;999.90;;;;;;;25.34;40.44;99379.19;8136413;29;20067;-78
2022/07/26 11:56:58;;;;;;;1999.90;999.90;;;;;;;25.54;40.01;99370.75;8141943;29;20615;-78
2022/07/26 12:00:59;;;;;;;1999.90;999.90;;;;;;;25.68;39.40;99361.03;8134376;29;20834;-79
2022/07/26 12:05:15;;;;;;;;;;;;;;;25.63;39.70;99363.94;8162166;29;20043;-79
2022/07/26 12:09:39;;;;;;;1999.90;999.90;;;;;;;25.59;40.52;99354.47;8159196;29;20718;-78
2022/07/26 12:13:58;;;;;;;1999.90;999.90;;;;;;;26.27;39.37;99356.09;8140988;29;20055;-79
2022/07/26 12:18:00;;;;;;;1999.90;999.90;;;;;;;26.28;37.83;99363.97;8155483;29;20501;-78
2022/07/26 12:22:13;;;;;;;;;;;;;;;26.35;38.21;99362.63;8132621;29;20059;-79
2022/07/26 12:26:23;;;;;;;1999.90;999.90;;;;;;;26.25;37.96;99366.00;8136401;29;19926;-79
2022/07/26 12:30:25;;;;;;;1999.90;999.90;;;;;;;26.02;38.77;99363.09;8144380;29;20055;-78
2022/07/26 12:34:32;;;;;;;1999.90;999.90;;;;;;;26.32;38.45;99353.97;8186645;28;20075;-78
2022/07/26 12:38:39;;;;;;;1999.90;999.90;;;;;;;26.88;39.03;99349.13;8173743;28;20504;-79
2022/07/26 12:42:59;;;;;;;1999.90;999.90;;;;;;;27.03;36.68;99356.03;8173413;29;20130;-78
2022/07/26 12:47:04;;;;;;;1999.90;999.90;;;;;;;26.85;38.46;99352.84;8168357;28;20060;-77
2022/07/26 12:51:06;;;;;;;1999.90;999.90;;;;;;;26.90;38.98;99349.84;8155539;29;20047;-76
2022/07/26 12:55:11;;;;;;;1999.90;999.90;;;;;;;26.68;38.99;99353.22;8133409;29;20078;-76
2022/07/26 12:59:13;;;;;;;1999.90;999.90;;;;;;;26.24;38.26;99351.84;8114675;29;20457;-76
2022/07/26 13:03:18;;;;;;;1999.90;999.90;;;;;;;26.01;39.69;99353.41;8167183;28;20845;-76
2022/07/26 13:07:19;;;;;;;1999.90;999.90;;;;;;;25.81;39.80;99346.78;8165383;28;20130;-77
2022/07/26 13:11:21;;;;;;;;;;;;;;;25.68;40.27;99350.41;8185740;28;20180;-76
2022/07/26 13:15:22;;;;;;;1999.90;999.90;;;;;;;25.65;40.85;99346.06;8164974;28;20029;-76
2022/07/26 13:19:38;;;;;;;1999.90;999.90;;;;;;;25.74;40.82;99347.31;8160825;28;20078;-77
2022/07/26 13:23:39;;;;;;;1999.90;999.90;;;;;;;25.82;40.09;99339.66;8159117;28;20058;-77
2022/07/26 13:27:41;;;;;;;1999.90;999.90;;;;;;;25.74;40.94;99339.34;8185004;28;20599;-77
2022/07/26 13:31:45;;;;;;;1999.90;999.90;;;;;;;25.67;40.74;99335.34;8178125;28;20059;-77
2022/07/26 13:35:47;;;;;;;1999.90;999.90;;;;;;;25.52;40.81;99335.44;8164225;29;20083;-80
2022/07/26 13:39:50;;;;;;;1999.90;999.90;;;;;;;25.44;41.54;99340.38;8190955;28;20047;-80
2022/07/26 13:43:52;;;;;;;1999.90;999.90;;;;;;;25.32;40.88;99343.03;8175724;28;20191;-80
2022/07/26 13:47:54;;;;;;;1999.90;999.90;;;;;;;25.21;41.72;99331.28;8182546;28;20059;-79
2022/07/26 13:51:56;;;;;;;1999.90;999.90;;;;;;;25.18;42.29;99336.81;8168648;28;20054;-78
2022/07/26 13:55:57;;;;;;;;;;;;;;;25.15;42.83;99334.34;8179929;28;21878;-78
2022/07/26 13:59:59;;;;;;;1999.90;999.90;;;;;;;25.12;42.57;99331.00;8181946;28;20033;-78
2022/07/26 14:04:01;;;;;;;;;;;;;;;25.07;42.96;99328.66;8166575;28;20134;-79
2022/07/26 14:08:04;;;;;;;1999.90;999.90;;;;;;;25.12;42.52;99323.03;8188218;28;19926;-78
2022/07/26 14:12:06;;;;;;;1999.90;999.90;;;;;;;25.20;40.77;99320.75;8176463;28;20138;-78
2022/07/26 14:16:08;;;;;;;1999.90;999.90;;;;;;;25.41;40.79;99315.81;8168538;28;20070;-78
2022/07/26 14:20:11;;;;;;;1999.90;999.90;;;;;;;25.73;40.07;99311.88;8160367;28;20119;-78
2022/07/26 14:24:12;;;;;;;1999.90;999.90;;;;;;;25.87;39.44;99321.59;8164689;28;20540;-78
2022/07/26 14:28:16;;;;;;;1999.90;999.90;;;;;;;25.78;39.15;99315.06;8159767;29;20724;-78
2022/07/26 14:32:18;;;;;;;1999.90;999.90;;;;;;;25.79;38.93;99311.47;8150477;28;20062;-77
2022/07/26 14:36:22;;;;;;;1999.90;999.90;;;;;;;26.00;38.70;99305.63;8155662;29;20052;-78
2022/07/26 14:40:24;;;;;;;;;;;;;;;26.19;38.99;99306.88;8156551;29;20043;-78
2022/07/26 14:44:26;;;;;;;1999.90;999.90;;;;;;;26.24;38.83;99303.94;8132385;29;19930;-78
2022/07/26 14:48:27;;;;;;;1999.90;999.90;;;;;;;26.09;38.24;99313.84;8146068;28;20828;-78
2022/07/26 14:52:49;;;;;;;1999.90;999.90;;;;;;;25.85;38.91;99303.09;8178082;28;20055;-78
2022/07/26 14:56:50;;;;;;;1999.90;999.90;;;;;;;25.58;38.78;99305.75;8176559;28;20126;-78
2022/07/26 15:00:52;;;;;;;1999.90;999.90;;;;;;;25.66;39.33;99304.38;8159935;28;20859;-79
2022/07/26 15:04:54;;;;;;;1999.90;999.90;;;;;;;25.79;38.87;99302.63;8173145;28;20043;-78
2022/07/26 15:08:55;;;;;;;;;;;;;;;25.98;37.85;99311.06;8167029;28;20079;-78
2022/07/26 15:12:59;;;;;;;1999.90;999.90;;;;;;;26.15;38.06;99312.53;8178027;28;20017;-78
2022/07/26 15:17:00;;;;;;;1999.90;999.90;;;;;;;26.15;38.69;99308.06;8154951;28;20073;-77
2022/07/26 15:21:02;;;;;;;1999.90;999.90;;;;;;;26.03;38.42;99300.06;8181752;28;20048;-76
2022/07/26 15:25:03;;;;;;;;;;;;;;;25.83;37.60;99299.66;8157176;28;20661;-77
2022/07/26 15:29:05;;;;;;;1999.90;999.90;;;;;;;25.60;38.48;99300.34;8173133;28;20025;-77
2022/07/26 15:33:06;;;;;;;1999.90;999.90;;;;;;;25.42;37.94;99291.78;8143346;29;20062;-77
2022/07/26 15:37:08;;;;;;;;;;;;;;;25.33;38.44;99288.91;8145538;29;20080;-78
2022/07/26 15:41:09;;;;;;;1999.90;999.90;;;;;;;25.17;38.31;99292.59;8144614;29;19934;-78
2022/07/26 15:45:12;;;;;;;1999.90;999.90;;;;;;;25.19;38.95;99280.03;8135458;29;20754;-77
2022/07/26 15:49:15;;;;;;;1999.90;999.90;;;;;;;25.30;39.33;99288.13;8151423;29;20059;-78
2022/07/26 15:53:17;;;;;;;1999.90;999.90;;;;;;;25.41;39.01;99282.09;8137814;29;20133;-79
2022/07/26 15:57:18;;;;;;;;;;;;;;;25.52;38.14;99276.09;8136839;29;20074;-78
2022/07/26 16:01:20;;;;;;;1999.90;999.90;;;;;;;25.59;38.46;99282.69;8149013;29;20765;-78
2022/07/26 16:05:21;;;;;;;;;;;;;;;25.99;38.64;99285.28;8138378;29;20047;-78
2022/07/26 16:09:23;;;;;;;1999.90;999.90;;;;;;;26.48;37.92;99272.06;8144066;29;19927;-77
2022/07/26 16:13:24;;;;;;;;;;;;;;;26.58;36.23;99270.47;8161985;29;20114;-78
2022/07/26 16:17:26;;;;;;;1999.90;999.90;;;;;;;26.33;36.19;99270.47;8153280;28;19926;-78
2022/07/26 16:21:27;;;;;;;1999.90;999.90;;;;;;;26.06;35.90;99274.13;8190182;28;20122;-78
2022/07/26 16:25:29;;;;;;;1999.90;999.90;;;;;;;25.81;36.45;99269.63;8198809;28;20393;-78
2022/07/26 16:29:30;;;;;;;1999.90;999.90;;;;;;;25.69;37.02;99273.16;8193170;28;20180;-78
2022/07/26 16:33:32;;;;;;;;;;;;;;;25.69;37.80;99270.50;8184339;28;20043;-78
2022/07/26 16:37:33;;;;;;;1999.90;999.90;;;;;;;25.63;37.12;99265.56;8188657;28;19926;-78
2022/07/26 16:41:35;;;;;;;1999.90;999.90;;;;;;;25.56;37.67;99275.75;8169557;28;20484;-78
2022/07/26 16:45:36;;;;;;;1999.90;999.90;;;;;;;25.42;37.82;99265.19;8189346;28;20061;-78
2022/07/26 16:49:38;;;;;;;1999.90;999.90;;;;;;;25.35;37.80;99268.38;8183965;28;20130;-78
2022/07/26 16:53:40;;;;;;;1999.90;999.90;;;;;;;25.27;37.75;99269.72;8176491;28;20062;-79
2022/07/26 16:57:41;;;;;;;;;;;;;;;25.17;37.80;99262.50;8189774;28;20122;-78
2022/07/26 17:01:44;;;;;;;1999.90;999.90;;;;;;;25.11;37.82;99258.41;8163964;28;19983;-78
2022/07/26 17:05:46;;;;;;;;;;;;;;;25.08;39.86;99263.09;8172028;28;20043;-78
2022/07/26 17:09:47;;;;;;;1999.90;999.90;;;;;;;24.99;38.73;99256.56;8190331;28;20331;-78
2022/07/26 17:13:49;;;;;;;1999.90;999.90;;;;;;;24.92;39.50;99257.91;8187967;28;20150;-77
2022/07/26 17:17:50;;;;;;;1999.90;999.90;;;;;;;24.84;39.59;99263.72;8172824;28;20101;-77
2022/07/26 17:21:52;;;;;;;1999.90;999.90;;;;;;;24.77;40.45;99261.53;8165334;28;20083;-77
2022/07/26 17:25:54;;;;;;;1999.90;999.90;;;;;;;24.69;40.32;99254.94;8167343;28;20039;-77
2022/07/26 17:29:55;;;;;;;1999.90;999.90;;;;;;;24.58;39.17;99256.56;8180749;28;20079;-79
2022/07/26 17:33:57;;;;;;;1999.90;999.90;;;;;;;24.48;40.46;99250.16;8131501;29;20068;-79
2022/07/26 17:37:58;;;;;;;1999.90;999.90;;;;;;;24.34;40.20;99249.22;8150769;29;20702;-80
2022/07/26 17:42:00;;;;;;;1999.90;999.90;;;;;;;24.26;41.24;99250.63;8148643;29;20047;-79
2022/07/26 17:46:02;;;;;;;1999.90;999.90;;;;;;;24.08;38.67;99245.53;8132504;28;20051;-79
2022/07/26 17:50:06;;;;;;;1999.90;999.90;;;;;;;23.99;38.42;99248.72;8172927;29;20055;-79
2022/07/26 17:54:28;;;;;;;1999.90;999.90;;;;;;;23.88;38.58;99251.22;8165780;28;20396;-80
2022/07/26 17:58:29;;;;;;;1999.90;999.90;;;;;;;23.83;41.67;99255.06;8166285;28;20280;-79
2022/07/26 18:02:31;;;;;;;1999.90;999.90;;;;;;;23.72;40.67;99255.72;8145716;29;20052;-80
2022/07/26 18:06:32;;;;;;;1999.90;999.90;;;;;;;23.64;39.45;99256.19;8135074;29;20043;-79
2022/07/26 18:10:35;;;;;;;1999.90;999.90;;;;;;;23.56;38.87;99247.81;8136579;29;20907;-79
2022/07/26 18:14:37;;;;;;;1999.90;999.90;;;;;;;23.48;40.48;99250.03;8132357;29;20126;-79
2022/07/26 18:18:39;;;;;;;1999.90;999.90;;;;;;;23.42;40.49;99250.41;8179860;28;20584;-79